Station Historical Data
Daily Summary for April 11, 2017 Units:  Metric    English   Both
« Previous Day
Next Day »
Daily Weekly Monthly Yearly Custom
  High: Low: Average:
Temperature: 26.7 °C 9.5 °C 19 °C
Dew Point: 14.3 °C -6.4 °C 7.6 °C
Humidity: 81% 32% 50%
Wind Speed: 1.6km/h 0km/h 0.2km/h
Wind Gust: 8km/h - -
Wind- - SW
Pressure: 1026.6 hPa 1021.2 hPa -
Precipitation: 0 mm    
Historical Graphs
 
 
Tabular Data for April 11, 2017
Time Temperature Dew Point Pressure Wind Wind Speed Wind Gust Humidity Rainfall Rate (Hourly) solar Conditions
00:00 15.7 °C -0.1 °C 1024.6 hPa Calm     34% 0 mm WeatherDisplay:10.37 W/m2 RA
00:15 15.8 °C 9.9 °C 1024.6 hPa Calm     68% 0 mm WeatherDisplay:10.37 W/m2 SCT
00:30 15.8 °C 9.7 °C 1024.6 hPa Calm     67% 0 mm WeatherDisplay:10.37 W/m2 SCT
00:45 15.9 °C 9.1 °C 1024.3 hPa Calm     64% 0 mm WeatherDisplay:10.37 W/m2 SCT
01:00 15.8 °C 9.7 °C 1024.3 hPa Calm     67% 0 mm WeatherDisplay:10.37 W/m2 SCT
01:15 15.4 °C 9.8 °C 1024.3 hPa Calm     69% 0 mm WeatherDisplay:10.37 W/m2 SCT
01:30 15.1 °C 9.7 °C 1024.3 hPa Calm     70% 0 mm WeatherDisplay:10.37 W/m2 SCT
01:45 15 °C 10 °C 1024.3 hPa Calm     72% 0 mm WeatherDisplay:10.37 W/m2 SCT
02:00 14.7 °C 10.1 °C 1024.3 hPa Calm     74% 0 mm WeatherDisplay:10.37 W/m2 SCT
02:15 14.4 °C 10.1 °C 1024.3 hPa Calm     75% 0 mm WeatherDisplay:10.37 W/m2 SCT
02:30 14.1 °C 9.9 °C 1024.3 hPa Calm     76% 0 mm WeatherDisplay:10.37 W/m2 SCT
02:45 13.7 °C 9.8 °C 1023.9 hPa Calm     77% 0 mm WeatherDisplay:10.37 W/m2 SCT
03:00 13.5 °C 9.7 °C 1023.9 hPa Calm     78% 0 mm WeatherDisplay:10.37 W/m2 SCT
03:15 13.3 °C 9.8 °C 1023.9 hPa Calm     79% 0 mm WeatherDisplay:10.37 W/m2 SCT
03:30 12.6 °C 9 °C 1023.9 hPa Calm     79% 0 mm WeatherDisplay:10.37 W/m2 SCT
03:45 12.4 °C -3.9 °C 1023.9 hPa Calm     32% 0 mm WeatherDisplay:10.37 W/m2 SCT
04:00 11.4 °C -4.7 °C 1023.6 hPa Calm     32% 0 mm WeatherDisplay:10.37 W/m2 SCT
04:15 11.1 °C -5 °C 1021.2 hPa Calm     32% 0 mm WeatherDisplay:10.37 W/m2 SCT
04:30 10.5 °C -5.6 °C 1023.6 hPa Calm     32% 0 mm WeatherDisplay:10.37 W/m2 SCT
04:45 10.4 °C -5.6 °C 1023.6 hPa Calm     32% 0 mm WeatherDisplay:10.37 W/m2 SCT
05:00 10.1 °C -5.9 °C 1023.6 hPa Calm     32% 0 mm WeatherDisplay:10.37 W/m2 SCT
05:15 9.9 °C -6 °C 1023.6 hPa Calm     32% 0 mm WeatherDisplay:10.37 W/m2 SCT
05:30 9.8 °C -6.1 °C 1023.6 hPa Calm     32% 0 mm WeatherDisplay:10.37 W/m2 SCT
05:45 9.7 °C -6.2 °C 1023.6 hPa Calm     32% 0 mm WeatherDisplay:10.37 W/m2 SCT
06:00 9.7 °C -6.3 °C 1023.6 hPa Calm     32% 0 mm WeatherDisplay:10.37 W/m2 SCT
06:15 9.6 °C -6.3 °C 1023.9 hPa Calm     32% 0 mm WeatherDisplay:10.37 W/m2 SCT
06:30 9.6 °C -6.4 °C 1023.9 hPa Calm     32% 0 mm WeatherDisplay:10.37 W/m2 SCT
06:45 9.5 °C -6.4 °C 1023.9 hPa Calm     32% 0 mm WeatherDisplay:10.37 W/m2 SCT
07:00 9.5 °C -6.4 °C 1023.9 hPa Calm     32% 0 mm WeatherDisplay:10.37 W/m2 SCT
07:15 9.5 °C -6.4 °C 1023.9 hPa Calm     32% 0 mm WeatherDisplay:10.37 W/m2 SCT
07:30 9.5 °C -6.4 °C 1024.3 hPa Calm     32% 0 mm WeatherDisplay:10.37 W/m2 SCT
07:45 9.5 °C -6.4 °C 1024.6 hPa Calm     32% 0 mm WeatherDisplay:10.37 W/m2 SCT
08:00 9.5 °C -6.4 °C 1024.9 hPa Calm     32% 0 mm WeatherDisplay:10.37 W/m2 SCT
08:15 14 °C 10.8 °C 1025.3 hPa Calm   1.6 km/h 81% 0 mm WeatherDisplay:10.37 W/m2 SCT
08:30 14.7 °C 11.1 °C 1025.3 hPa Calm   1.6 km/h 79% 0 mm WeatherDisplay:10.37 W/m2 SCT
08:45 15.7 °C 11.3 °C 1025.6 hPa Calm   1.6 km/h 75% 0 mm WeatherDisplay:10.37 W/m2 SCT
09:00 16 °C 11.4 °C 1025.6 hPa Calm   1.6 km/h 74% 0 mm WeatherDisplay:10.37 W/m2 SCT
09:15 17 °C 11.9 °C 1025.6 hPa Calm   3.2 km/h 72% 0 mm WeatherDisplay:10.37 W/m2 SCT
09:30 17.6 °C 12.3 °C 1026 hPa Calm   1.6 km/h 71% 0 mm WeatherDisplay:10.37 W/m2 SCT
09:45 19.1 °C 12.6 °C 1026 hPa Calm   3.2 km/h 66% 0 mm WeatherDisplay:10.37 W/m2 SCT
10:00 20.1 °C 12.6 °C 1026.3 hPa NNW 1.6 km/h 3.2 km/h 62% 0 mm WeatherDisplay:10.37 W/m2 SCT
10:15 21.3 °C 13.7 °C 1026.3 hPa Calm   3.2 km/h 62% 0 mm WeatherDisplay:10.37 W/m2 SCT
10:30 21.4 °C 13.6 °C 1026.3 hPa Calm   3.2 km/h 61% 0 mm WeatherDisplay:10.37 W/m2 SCT
10:45 22 °C 12.8 °C 1026.6 hPa South 1.6 km/h 8 km/h 56% 0 mm WeatherDisplay:10.37 W/m2 SCT
11:00 22.9 °C 13.7 °C 1026.3 hPa Calm   4.8 km/h 56% 0 mm WeatherDisplay:10.37 W/m2 SCT
11:15 23.7 °C 14.1 °C 1026.3 hPa Calm   3.2 km/h 55% 0 mm WeatherDisplay:10.37 W/m2 SCT
11:30 24.3 °C 14.3 °C 1026.3 hPa Calm   4.8 km/h 54% 0 mm WeatherDisplay:10.37 W/m2 SCT
11:45 24.7 °C 13.9 °C 1026.3 hPa Calm   3.2 km/h 51% 0 mm WeatherDisplay:10.37 W/m2 SCT
12:00 25 °C 13.6 °C 1026 hPa SSE 1.6 km/h 8 km/h 49% 0 mm WeatherDisplay:10.37 W/m2 SCT
12:15 25.2 °C 13.4 °C 1026 hPa SW 1.6 km/h 8 km/h 48% 0 mm WeatherDisplay:10.37 W/m2 SCT
12:30 25.7 °C 13.5 °C 1025.6 hPa Calm   4.8 km/h 47% 0 mm WeatherDisplay:10.37 W/m2 SCT
12:45 25.6 °C 12.4 °C 1025.6 hPa SW 1.6 km/h 4.8 km/h 44% 0 mm WeatherDisplay:10.37 W/m2 SCT
13:00 25.1 °C 12.3 °C 1025.3 hPa Calm   4.8 km/h 45% 0 mm WeatherDisplay:10.37 W/m2 SCT
13:15 25.1 °C 11.6 °C 1025.3 hPa SE 1.6 km/h 4.8 km/h 43% 0 mm WeatherDisplay:10.37 W/m2 SCT
13:30 24.6 °C 11.6 °C 1024.9 hPa Calm   4.8 km/h 44% 0 mm WeatherDisplay:10.37 W/m2 SCT
13:45 25.5 °C 12.3 °C 1024.6 hPa Calm   8 km/h 44% 0 mm WeatherDisplay:10.37 W/m2 SCT
14:15 25.4 °C 11.2 °C 1024.3 hPa South 1.6 km/h 4.8 km/h 41% 0 mm WeatherDisplay:10.37 W/m2 SCT
14:30 25.4 °C 10.8 °C 1024.3 hPa Calm   4.8 km/h 40% 0 mm WeatherDisplay:10.37 W/m2 SCT
14:45 25.4 °C 10.4 °C 1023.9 hPa Calm   3.2 km/h 39% 0 mm WeatherDisplay:10.37 W/m2 SCT
15:00 25.8 °C 10.4 °C 1023.6 hPa Calm   3.2 km/h 38% 0 mm WeatherDisplay:10.37 W/m2 SCT
15:15 26 °C 10.2 °C 1023.2 hPa Calm   3.2 km/h 37% 0 mm WeatherDisplay:10.37 W/m2 SCT
15:30 26.3 °C 10.8 °C 1023.2 hPa Calm   4.8 km/h 38% 0 mm WeatherDisplay:10.37 W/m2 SCT
15:45 26.7 °C 10.8 °C 1022.6 hPa Calm   3.2 km/h 37% 0 mm WeatherDisplay:10.37 W/m2 SCT
16:00 26 °C 9.8 °C 1022.6 hPa Calm   3.2 km/h 36% 0 mm WeatherDisplay:10.37 W/m2 SCT
16:15 26 °C 10.6 °C 1022.2 hPa Calm   1.6 km/h 38% 0 mm WeatherDisplay:10.37 W/m2 SCT
16:30 26.3 °C 9.7 °C 1022.2 hPa Calm   4.8 km/h 35% 0 mm WeatherDisplay:10.37 W/m2 SCT
16:45 26.4 °C 9.7 °C 1021.9 hPa Calm   4.8 km/h 35% 0 mm WeatherDisplay:10.37 W/m2 SCT
17:00 26.3 °C 10.1 °C 1021.9 hPa Calm   1.6 km/h 36% 0 mm WeatherDisplay:10.37 W/m2 SCT
17:15 26.4 °C 9.7 °C 1021.6 hPa WNW 1.6 km/h 3.2 km/h 35% 0 mm WeatherDisplay:10.37 W/m2 SCT
17:30 26.4 °C 9.3 °C 1021.6 hPa Calm   1.6 km/h 34% 0 mm WeatherDisplay:10.37 W/m2 SCT
17:45 26.6 °C 8.9 °C 1021.6 hPa NW 1.6 km/h 3.2 km/h 33% 0 mm WeatherDisplay:10.37 W/m2 CLR
18:00 26.2 °C 9.5 °C 1021.6 hPa Calm   1.6 km/h 35% 0 mm WeatherDisplay:10.37 W/m2 CLR
18:15 25.5 °C 10.1 °C 1021.6 hPa Calm   1.6 km/h 38% 0 mm WeatherDisplay:10.37 W/m2 CLR
18:30 25.3 °C 9.2 °C 1021.6 hPa Calm     36% 0 mm WeatherDisplay:10.37 W/m2 CLR
18:45 25.1 °C 9.3 °C 1021.6 hPa Calm     37% 0 mm WeatherDisplay:10.37 W/m2 CLR
19:00 24.7 °C 9.4 °C 1021.6 hPa Calm   1.6 km/h 38% 0 mm WeatherDisplay:10.37 W/m2 CLR
19:15 24.3 °C 9.8 °C 1021.6 hPa Calm     40% 0 mm WeatherDisplay:10.37 W/m2 CLR
19:30 23.8 °C 10.4 °C 1021.6 hPa Calm     43% 0 mm WeatherDisplay:10.37 W/m2 CLR
19:45 23.2 °C 9.9 °C 1021.6 hPa Calm     43% 0 mm WeatherDisplay:10.37 W/m2 CLR
20:00 22.7 °C 9.8 °C 1021.9 hPa Calm     44% 0 mm WeatherDisplay:10.37 W/m2 CLR
20:15 22.2 °C 10.3 °C 1021.9 hPa Calm     47% 0 mm WeatherDisplay:10.37 W/m2 CLR
20:30 21.7 °C 10.2 °C 1022.2 hPa Calm     48% 0 mm WeatherDisplay:10.37 W/m2 CLR
20:45 21.3 °C 10.4 °C 1022.2 hPa Calm     50% 0 mm WeatherDisplay:10.37 W/m2 CLR
21:00 20.8 °C 10.6 °C 1022.2 hPa Calm     52% 0 mm WeatherDisplay:10.37 W/m2 CLR
21:15 20.2 °C 10.6 °C 1022.6 hPa Calm     54% 0 mm WeatherDisplay:10.37 W/m2 CLR
21:30 19.9 °C 10.6 °C 1022.6 hPa Calm     55% 0 mm WeatherDisplay:10.37 W/m2 CLR
21:45 19.4 °C 11.2 °C 1022.9 hPa Calm     59% 0 mm WeatherDisplay:10.37 W/m2 CLR
22:00 18.8 °C 11.1 °C 1023.2 hPa Calm     61% 0 mm WeatherDisplay:10.37 W/m2 CLR
22:15 18.4 °C 11.2 °C 1023.2 hPa Calm     63% 0 mm WeatherDisplay:10.37 W/m2 CLR
22:30 18.2 °C 11.8 °C 1023.2 hPa Calm     66% 0 mm WeatherDisplay:10.37 W/m2 CLR
22:45 18.3 °C 11.2 °C 1023.2 hPa Calm     63% 0 mm WeatherDisplay:10.37 W/m2 CLR
23:00 18.3 °C 10.9 °C 1023.2 hPa Calm     62% 0 mm WeatherDisplay:10.37 W/m2 CLR
23:15 18.4 °C 11.2 °C 1023.2 hPa Calm     63% 0 mm WeatherDisplay:10.37 W/m2 CLR
23:30 18.3 °C 10.9 °C 1023.6 hPa Calm     62% 0 mm WeatherDisplay:10.37 W/m2 CLR
23:45 18.3 °C 10.9 °C 1023.2 hPa Calm     62% 0 mm WeatherDisplay:10.37 W/m2 CLR
Piedmont Bend
Compliments of Weather Underground - 4 mb